sensor_id;sensor_type;location;lat;lon;timestamp;pressure;altitude;pressure_sealevel;temperature;humidity
11912;BME280;6016;41.928;25.556;2023-11-21T00:01:31;98903.28;;;10.69;57.46
11912;BME280;6016;41.928;25.556;2023-11-21T00:03:59;98918.38;;;10.77;57.86
11912;BME280;6016;41.928;25.556;2023-11-21T00:06:27;98917.22;;;10.80;58.17
11912;BME280;6016;41.928;25.556;2023-11-21T00:08:56;98914.91;;;10.77;59.42
11912;BME280;6016;41.928;25.556;2023-11-21T00:11:23;98912.44;;;10.65;59.27
11912;BME280;6016;41.928;25.556;2023-11-21T00:13:50;98922.72;;;10.68;58.86
11912;BME280;6016;41.928;25.556;2023-11-21T00:16:17;98929.94;;;10.66;58.43
11912;BME280;6016;41.928;25.556;2023-11-21T00:18:44;98902.25;;;10.43;59.68
11912;BME280;6016;41.928;25.556;2023-11-21T00:21:12;98925.78;;;10.64;59.73
11912;BME280;6016;41.928;25.556;2023-11-21T00:23:39;98936.72;;;10.69;59.28
11912;BME280;6016;41.928;25.556;2023-11-21T00:26:07;98938.44;;;10.60;59.11
11912;BME280;6016;41.928;25.556;2023-11-21T00:28:34;98942.84;;;10.60;58.73
11912;BME280;6016;41.928;25.556;2023-11-21T00:31:01;98764.06;;;9.50;58.86
11912;BME280;6016;41.928;25.556;2023-11-21T00:33:28;98946.22;;;10.52;60.13
11912;BME280;6016;41.928;25.556;2023-11-21T00:35:55;98950.09;;;10.58;59.51
11912;BME280;6016;41.928;25.556;2023-11-21T00:38:22;98929.72;;;10.50;59.33
11912;BME280;6016;41.928;25.556;2023-11-21T00:40:49;98937.50;;;10.51;60.11
11912;BME280;6016;41.928;25.556;2023-11-21T00:43:18;98909.59;;;10.39;58.50
11912;BME280;6016;41.928;25.556;2023-11-21T00:45:45;98958.69;;;10.60;59.43
11912;BME280;6016;41.928;25.556;2023-11-21T00:48:14;98953.41;;;10.60;58.88
11912;BME280;6016;41.928;25.556;2023-11-21T00:50:41;98954.38;;;10.59;59.44
11912;BME280;6016;41.928;25.556;2023-11-21T00:53:08;98947.88;;;10.63;60.13
11912;BME280;6016;41.928;25.556;2023-11-21T00:55:34;98931.91;;;10.54;59.82
11912;BME280;6016;41.928;25.556;2023-11-21T00:58:01;98945.38;;;10.61;59.25
11912;BME280;6016;41.928;25.556;2023-11-21T01:00:31;98952.44;;;10.61;60.40
11912;BME280;6016;41.928;25.556;2023-11-21T01:02:58;98950.78;;;10.60;59.48
11912;BME280;6016;41.928;25.556;2023-11-21T01:05:25;98951.06;;;10.57;59.27
11912;BME280;6016;41.928;25.556;2023-11-21T01:07:52;98894.63;;;10.30;59.54
11912;BME280;6016;41.928;25.556;2023-11-21T01:10:19;98939.28;;;10.51;58.66
11912;BME280;6016;41.928;25.556;2023-11-21T01:12:46;98920.44;;;10.26;58.51
11912;BME280;6016;41.928;25.556;2023-11-21T01:15:14;98936.25;;;10.26;59.94
11912;BME280;6016;41.928;25.556;2023-11-21T01:17:42;98928.34;;;10.26;59.58
11912;BME280;6016;41.928;25.556;2023-11-21T01:20:10;98931.56;;;10.20;59.48
11912;BME280;6016;41.928;25.556;2023-11-21T01:22:38;98923.22;;;10.14;59.23
11912;BME280;6016;41.928;25.556;2023-11-21T01:25:05;98932.13;;;10.13;60.12
11912;BME280;6016;41.928;25.556;2023-11-21T01:27:33;98844.97;;;9.57;60.28
11912;BME280;6016;41.928;25.556;2023-11-21T01:30:00;98905.94;;;9.82;61.11
11912;BME280;6016;41.928;25.556;2023-11-21T01:32:27;98917.03;;;9.96;59.36
11912;BME280;6016;41.928;25.556;2023-11-21T01:34:56;98915.22;;;9.96;60.44
11912;BME280;6016;41.928;25.556;2023-11-21T01:37:23;98918.41;;;10.00;60.53
11912;BME280;6016;41.928;25.556;2023-11-21T01:39:53;98907.47;;;9.95;60.40
11912;BME280;6016;41.928;25.556;2023-11-21T01:42:20;98910.53;;;9.80;60.83
11912;BME280;6016;41.928;25.556;2023-11-21T01:44:47;98918.41;;;9.90;61.07
11912;BME280;6016;41.928;25.556;2023-11-21T01:47:14;98912.16;;;9.71;60.54
11912;BME280;6016;41.928;25.556;2023-11-21T01:49:43;98902.06;;;9.47;61.10
11912;BME280;6016;41.928;25.556;2023-11-21T01:52:12;98920.91;;;9.72;60.63
11912;BME280;6016;41.928;25.556;2023-11-21T01:54:40;98920.91;;;9.72;60.32
11912;BME280;6016;41.928;25.556;2023-11-21T01:57:07;98891.53;;;9.67;60.15
11912;BME280;6016;41.928;25.556;2023-11-21T01:59:37;98909.56;;;9.81;60.56
11912;BME280;6016;41.928;25.556;2023-11-21T02:02:04;98883.34;;;9.60;61.27
11912;BME280;6016;41.928;25.556;2023-11-21T02:04:32;98908.56;;;9.73;61.09
11912;BME280;6016;41.928;25.556;2023-11-21T02:06:59;98909.97;;;9.77;60.62
11912;BME280;6016;41.928;25.556;2023-11-21T02:09:27;98904.00;;;9.84;60.42
11912;BME280;6016;41.928;25.556;2023-11-21T02:11:55;98908.28;;;9.85;60.88
11912;BME280;6016;41.928;25.556;2023-11-21T02:14:24;98911.34;;;9.81;60.92
11912;BME280;6016;41.928;25.556;2023-11-21T02:16:52;98908.16;;;9.57;61.40
11912;BME280;6016;41.928;25.556;2023-11-21T02:19:20;98915.09;;;9.59;61.68
11912;BME280;6016;41.928;25.556;2023-11-21T02:21:49;98922.16;;;9.58;61.52
11912;BME280;6016;41.928;25.556;2023-11-21T02:24:19;98905.78;;;9.45;61.78
11912;BME280;6016;41.928;25.556;2023-11-21T02:26:46;98872.25;;;9.17;62.16
11912;BME280;6016;41.928;25.556;2023-11-21T02:29:13;98916.59;;;9.51;62.35
11912;BME280;6016;41.928;25.556;2023-11-21T02:31:43;98908.28;;;9.46;62.11
11912;BME280;6016;41.928;25.556;2023-11-21T02:34:13;98907.31;;;9.37;60.92
11912;BME280;6016;41.928;25.556;2023-11-21T02:36:40;98878.75;;;9.13;61.00
11912;BME280;6016;41.928;25.556;2023-11-21T02:39:09;98911.88;;;9.35;60.93
11912;BME280;6016;41.928;25.556;2023-11-21T02:41:37;98806.69;;;8.75;61.57
11912;BME280;6016;41.928;25.556;2023-11-21T02:44:05;98903.16;;;9.45;61.30
11912;BME280;6016;41.928;25.556;2023-11-21T02:46:33;98861.16;;;9.23;61.65
11912;BME280;6016;41.928;25.556;2023-11-21T02:49:00;98895.81;;;9.48;61.15
11912;BME280;6016;41.928;25.556;2023-11-21T02:51:27;98865.47;;;9.34;60.96
11912;BME280;6016;41.928;25.556;2023-11-21T02:53:54;98844.13;;;9.18;61.18
11912;BME280;6016;41.928;25.556;2023-11-21T02:56:24;98891.53;;;9.37;60.63
11912;BME280;6016;41.928;25.556;2023-11-21T02:58:52;98888.75;;;9.39;60.54
11912;BME280;6016;41.928;25.556;2023-11-21T03:01:19;98894.28;;;9.26;60.73
11912;BME280;6016;41.928;25.556;2023-11-21T03:03:46;98792.56;;;8.76;60.45
11912;BME280;6016;41.928;25.556;2023-11-21T03:06:16;98890.28;;;9.32;60.92
11912;BME280;6016;41.928;25.556;2023-11-21T03:08:43;98893.59;;;9.24;60.88
11912;BME280;6016;41.928;25.556;2023-11-21T03:11:10;98671.84;;;7.82;61.10
11912;BME280;6016;41.928;25.556;2023-11-21T03:13:38;98899.69;;;9.24;60.68
11912;BME280;6016;41.928;25.556;2023-11-21T03:16:07;98888.41;;;9.03;60.50
11912;BME280;6016;41.928;25.556;2023-11-21T03:18:34;98899.66;;;9.05;60.54
11912;BME280;6016;41.928;25.556;2023-11-21T03:21:01;98903.66;;;9.09;60.47
11912;BME280;6016;41.928;25.556;2023-11-21T03:23:28;98905.22;;;9.11;60.79
11912;BME280;6016;41.928;25.556;2023-11-21T03:25:55;98907.13;;;9.09;60.91
11912;BME280;6016;41.928;25.556;2023-11-21T03:28:22;98902.81;;;9.08;61.29
11912;BME280;6016;41.928;25.556;2023-11-21T03:30:49;98913.50;;;9.07;61.08
11912;BME280;6016;41.928;25.556;2023-11-21T03:33:17;98906.00;;;8.92;61.52
11912;BME280;6016;41.928;25.556;2023-11-21T03:35:44;98917.06;;;8.96;61.30
11912;BME280;6016;41.928;25.556;2023-11-21T03:38:11;98912.91;;;8.93;61.87
11912;BME280;6016;41.928;25.556;2023-11-21T03:40:38;98912.91;;;8.93;62.12
11912;BME280;6016;41.928;25.556;2023-11-21T03:43:05;98905.72;;;8.95;61.59
11912;BME280;6016;41.928;25.556;2023-11-21T03:45:32;98895.41;;;8.82;61.52
11912;BME280;6016;41.928;25.556;2023-11-21T03:48:00;98869.38;;;8.69;61.59
11912;BME280;6016;41.928;25.556;2023-11-21T03:50:29;98908.31;;;8.85;61.48
11912;BME280;6016;41.928;25.556;2023-11-21T03:52:56;98906.22;;;8.79;61.84
11912;BME280;6016;41.928;25.556;2023-11-21T03:55:23;98867.34;;;8.52;61.45
11912;BME280;6016;41.928;25.556;2023-11-21T03:57:50;98900.94;;;8.69;61.16
11912;BME280;6016;41.928;25.556;2023-11-21T04:00:18;98895.94;;;8.66;61.95
11912;BME280;6016;41.928;25.556;2023-11-21T04:02:46;98859.41;;;8.42;62.29
11912;BME280;6016;41.928;25.556;2023-11-21T04:05:13;98894.53;;;8.62;61.93
11912;BME280;6016;41.928;25.556;2023-11-21T04:07:41;98898.13;;;8.61;61.92
11912;BME280;6016;41.928;25.556;2023-11-21T04:10:09;98871.97;;;8.38;62.16
11912;BME280;6016;41.928;25.556;2023-11-21T04:12:38;98898.56;;;8.66;62.17
11912;BME280;6016;41.928;25.556;2023-11-21T04:15:06;98894.66;;;8.61;62.07
11912;BME280;6016;41.928;25.556;2023-11-21T04:17:34;98897.00;;;8.54;61.09
11912;BME280;6016;41.928;25.556;2023-11-21T04:20:02;98895.38;;;8.63;60.92
11912;BME280;6016;41.928;25.556;2023-11-21T04:22:31;98855.13;;;8.41;60.88
11912;BME280;6016;41.928;25.556;2023-11-21T04:24:59;98904.38;;;8.70;61.11
11912;BME280;6016;41.928;25.556;2023-11-21T04:27:27;98895.53;;;8.50;61.53
11912;BME280;6016;41.928;25.556;2023-11-21T04:29:53;98914.22;;;8.47;61.29
11912;BME280;6016;41.928;25.556;2023-11-21T04:32:20;98917.19;;;8.53;62.24
11912;BME280;6016;41.928;25.556;2023-11-21T04:34:47;98923.13;;;8.55;61.86
11912;BME280;6016;41.928;25.556;2023-11-21T04:37:14;98870.78;;;8.21;61.68
11912;BME280;6016;41.928;25.556;2023-11-21T04:39:41;98917.75;;;8.57;62.12
11912;BME280;6016;41.928;25.556;2023-11-21T04:42:09;98921.06;;;8.59;62.40
11912;BME280;6016;41.928;25.556;2023-11-21T04:44:36;98918.44;;;8.59;62.46
11912;BME280;6016;41.928;25.556;2023-11-21T04:47:03;98906.78;;;8.52;62.62
11912;BME280;6016;41.928;25.556;2023-11-21T04:49:30;98917.22;;;8.63;62.71
11912;BME280;6016;41.928;25.556;2023-11-21T04:51:57;98915.69;;;8.61;62.29
11912;BME280;6016;41.928;25.556;2023-11-21T04:54:24;98929.09;;;8.57;62.61
11912;BME280;6016;41.928;25.556;2023-11-21T04:56:51;98887.31;;;8.33;62.93
11912;BME280;6016;41.928;25.556;2023-11-21T04:59:19;98937.44;;;8.63;63.02
11912;BME280;6016;41.928;25.556;2023-11-21T05:01:46;98928.56;;;8.64;62.59
11912;BME280;6016;41.928;25.556;2023-11-21T05:04:13;98932.03;;;8.64;62.57
11912;BME280;6016;41.928;25.556;2023-11-21T05:06:40;98927.22;;;8.69;62.55
11912;BME280;6016;41.928;25.556;2023-11-21T05:09:07;98926.81;;;8.74;62.35
11912;BME280;6016;41.928;25.556;2023-11-21T05:11:37;98925.78;;;8.65;63.08
11912;BME280;6016;41.928;25.556;2023-11-21T05:14:06;98836.88;;;8.18;62.73
11912;BME280;6016;41.928;25.556;2023-11-21T05:16:35;98896.34;;;8.62;63.25
11912;BME280;6016;41.928;25.556;2023-11-21T05:19:03;98935.97;;;8.80;63.07
11912;BME280;6016;41.928;25.556;2023-11-21T05:21:30;98930.00;;;8.78;62.49
11912;BME280;6016;41.928;25.556;2023-11-21T05:23:58;98933.59;;;8.77;62.49
11912;BME280;6016;41.928;25.556;2023-11-21T05:26:25;98885.19;;;8.48;62.63
11912;BME280;6016;41.928;25.556;2023-11-21T05:28:52;98935.84;;;8.81;62.49
11912;BME280;6016;41.928;25.556;2023-11-21T05:31:19;98948.72;;;8.84;62.95
11912;BME280;6016;41.928;25.556;2023-11-21T05:33:47;98950.72;;;8.92;63.10
11912;BME280;6016;41.928;25.556;2023-11-21T05:36:14;98941.94;;;8.82;63.15
11912;BME280;6016;41.928;25.556;2023-11-21T05:38:41;98945.97;;;8.86;63.35
11912;BME280;6016;41.928;25.556;2023-11-21T05:41:08;98955.38;;;8.89;63.17
11912;BME280;6016;41.928;25.556;2023-11-21T05:43:36;98958.16;;;8.97;63.64
11912;BME280;6016;41.928;25.556;2023-11-21T05:46:03;98951.44;;;9.04;63.47
11912;BME280;6016;41.928;25.556;2023-11-21T05:48:31;98956.28;;;9.09;63.08
11912;BME280;6016;41.928;25.556;2023-11-21T05:50:59;98948.13;;;9.12;63.00
11912;BME280;6016;41.928;25.556;2023-11-21T05:53:27;98944.00;;;9.19;63.03
11912;BME280;6016;41.928;25.556;2023-11-21T05:55:54;98945.94;;;9.17;62.27
11912;BME280;6016;41.928;25.556;2023-11-21T05:58:21;98941.88;;;9.13;62.42
11912;BME280;6016;41.928;25.556;2023-11-21T06:00:49;98945.09;;;9.26;62.29
11912;BME280;6016;41.928;25.556;2023-11-21T06:03:16;98788.69;;;8.29;62.61
11912;BME280;6016;41.928;25.556;2023-11-21T06:05:44;98945.84;;;9.38;62.28
11912;BME280;6016;41.928;25.556;2023-11-21T06:08:12;98954.44;;;9.40;61.80
11912;BME280;6016;41.928;25.556;2023-11-21T06:10:39;98952.91;;;9.48;62.06
11912;BME280;6016;41.928;25.556;2023-11-21T06:13:06;98954.31;;;9.52;61.86
11912;BME280;6016;41.928;25.556;2023-11-21T06:15:33;98948.63;;;9.56;61.47
11912;BME280;6016;41.928;25.556;2023-11-21T06:18:00;98948.22;;;9.61;61.64
11912;BME280;6016;41.928;25.556;2023-11-21T06:20:27;98934.63;;;9.56;61.63
11912;BME280;6016;41.928;25.556;2023-11-21T06:22:54;98951.81;;;9.90;61.83
11912;BME280;6016;41.928;25.556;2023-11-21T06:25:22;98957.09;;;10.09;60.87
11912;BME280;6016;41.928;25.556;2023-11-21T06:27:50;98873.00;;;10.26;59.78
11912;BME280;6016;41.928;25.556;2023-11-21T06:30:19;98959.97;;;11.67;56.79
11912;BME280;6016;41.928;25.556;2023-11-21T06:32:47;98765.91;;;10.81;57.02
11912;BME280;6016;41.928;25.556;2023-11-21T06:35:14;98961.22;;;11.81;56.89
11912;BME280;6016;41.928;25.556;2023-11-21T06:37:41;98916.44;;;11.25;57.80
11912;BME280;6016;41.928;25.556;2023-11-21T06:40:13;98877.66;;;10.80;57.45
11912;BME280;6016;41.928;25.556;2023-11-21T06:42:41;98956.41;;;11.13;58.89
11912;BME280;6016;41.928;25.556;2023-11-21T06:45:10;98954.78;;;11.02;58.61
11912;BME280;6016;41.928;25.556;2023-11-21T06:47:37;98958.88;;;10.86;59.14
11912;BME280;6016;41.928;25.556;2023-11-21T06:50:05;98818.03;;;9.93;59.62
11912;BME280;6016;41.928;25.556;2023-11-21T06:52:32;98949.19;;;10.77;59.85
11912;BME280;6016;41.928;25.556;2023-11-21T06:54:59;98946.84;;;10.74;60.12
11912;BME280;6016;41.928;25.556;2023-11-21T06:57:26;98915.50;;;10.61;59.72
11912;BME280;6016;41.928;25.556;2023-11-21T06:59:54;98936.59;;;10.71;60.65
11912;BME280;6016;41.928;25.556;2023-11-21T07:02:23;98830.47;;;10.01;60.31
11912;BME280;6016;41.928;25.556;2023-11-21T07:04:49;98940.72;;;10.83;60.37
11912;BME280;6016;41.928;25.556;2023-11-21T07:07:17;98938.56;;;10.96;60.28
11912;BME280;6016;41.928;25.556;2023-11-21T07:09:45;98907.91;;;10.86;60.07
11912;BME280;6016;41.928;25.556;2023-11-21T07:12:11;98940.59;;;11.03;61.01
11912;BME280;6016;41.928;25.556;2023-11-21T07:14:39;98764.41;;;10.12;61.27
11912;BME280;6016;41.928;25.556;2023-11-21T07:17:10;98751.94;;;10.14;60.85
11912;BME280;6016;41.928;25.556;2023-11-21T07:19:37;98928.66;;;11.26;61.30
11912;BME280;6016;41.928;25.556;2023-11-21T07:22:04;98940.59;;;11.49;61.27
11912;BME280;6016;41.928;25.556;2023-11-21T07:24:32;98933.38;;;11.87;60.00
11912;BME280;6016;41.928;25.556;2023-11-21T07:26:59;98835.75;;;12.04;58.73
11912;BME280;6016;41.928;25.556;2023-11-21T07:29:26;98860.28;;;12.22;58.31
11912;BME280;6016;41.928;25.556;2023-11-21T07:31:55;98919.19;;;12.59;58.72
11912;BME280;6016;41.928;25.556;2023-11-21T07:34:23;98871.13;;;12.37;58.80
11912;BME280;6016;41.928;25.556;2023-11-21T07:36:50;98915.78;;;12.75;58.78
11912;BME280;6016;41.928;25.556;2023-11-21T07:39:17;98912.00;;;12.78;58.33
11912;BME280;6016;41.928;25.556;2023-11-21T07:41:44;98919.03;;;13.04;57.73
11912;BME280;6016;41.928;25.556;2023-11-21T07:44:14;98920.09;;;13.19;58.19
11912;BME280;6016;41.928;25.556;2023-11-21T07:46:41;98931.63;;;13.45;57.88
11912;BME280;6016;41.928;25.556;2023-11-21T07:49:08;98928.50;;;14.16;56.83
11912;BME280;6016;41.928;25.556;2023-11-21T07:51:36;98926.28;;;15.09;53.93
11912;BME280;6016;41.928;25.556;2023-11-21T07:54:03;98931.03;;;15.22;53.57
11912;BME280;6016;41.928;25.556;2023-11-21T07:56:31;98920.16;;;15.87;51.88
11912;BME280;6016;41.928;25.556;2023-11-21T07:58:57;98917.34;;;16.42;50.39
11912;BME280;6016;41.928;25.556;2023-11-21T08:01:24;98919.91;;;17.10;49.34
11912;BME280;6016;41.928;25.556;2023-11-21T08:03:53;98916.22;;;17.11;49.12
11912;BME280;6016;41.928;25.556;2023-11-21T08:06:22;98920.66;;;16.74;49.73
11912;BME280;6016;41.928;25.556;2023-11-21T08:08:52;98857.84;;;16.35;48.92
11912;BME280;6016;41.928;25.556;2023-11-21T08:11:19;98919.75;;;16.67;50.06
11912;BME280;6016;41.928;25.556;2023-11-21T08:13:46;98908.63;;;16.33;50.54
11912;BME280;6016;41.928;25.556;2023-11-21T08:16:14;98891.56;;;16.27;50.80
11912;BME280;6016;41.928;25.556;2023-11-21T08:18:42;98896.03;;;16.12;51.74
11912;BME280;6016;41.928;25.556;2023-11-21T08:21:09;98914.88;;;16.02;52.18
11912;BME280;6016;41.928;25.556;2023-11-21T08:23:37;98905.69;;;15.66;53.85
11912;BME280;6016;41.928;25.556;2023-11-21T08:26:06;98910.13;;;15.51;54.52
11912;BME280;6016;41.928;25.556;2023-11-21T08:28:34;98903.16;;;15.50;54.13
11912;BME280;6016;41.928;25.556;2023-11-21T08:31:01;98755.75;;;14.51;55.06
11912;BME280;6016;41.928;25.556;2023-11-21T08:33:28;98901.16;;;15.20;56.52
11912;BME280;6016;41.928;25.556;2023-11-21T08:35:55;98906.91;;;15.00;56.98
11912;BME280;6016;41.928;25.556;2023-11-21T08:38:22;98900.16;;;15.21;56.55
11912;BME280;6016;41.928;25.556;2023-11-21T08:40:49;98899.06;;;15.07;58.25
11912;BME280;6016;41.928;25.556;2023-11-21T08:43:17;98897.53;;;15.13;57.98
11912;BME280;6016;41.928;25.556;2023-11-21T08:45:45;98902.72;;;15.06;59.37
11912;BME280;6016;41.928;25.556;2023-11-21T08:48:12;98845.59;;;14.70;59.65
11912;BME280;6016;41.928;25.556;2023-11-21T08:50:39;98839.81;;;14.67;60.12
11912;BME280;6016;41.928;25.556;2023-11-21T08:53:06;98844.63;;;14.63;60.85
11912;BME280;6016;41.928;25.556;2023-11-21T08:55:33;98879.97;;;15.03;60.93
11912;BME280;6016;41.928;25.556;2023-11-21T08:58:03;98868.91;;;15.00;60.90
11912;BME280;6016;41.928;25.556;2023-11-21T09:00:32;98841.53;;;14.91;61.09
11912;BME280;6016;41.928;25.556;2023-11-21T09:03:00;98816.81;;;14.90;60.97
11912;BME280;6016;41.928;25.556;2023-11-21T09:05:28;98854.88;;;15.38;61.13
11912;BME280;6016;41.928;25.556;2023-11-21T09:07:55;98865.63;;;15.44;60.52
11912;BME280;6016;41.928;25.556;2023-11-21T09:10:22;98805.50;;;15.20;61.32
11912;BME280;6016;41.928;25.556;2023-11-21T09:12:50;98854.50;;;15.64;61.26
11912;BME280;6016;41.928;25.556;2023-11-21T09:15:18;98849.69;;;15.68;60.90
11912;BME280;6016;41.928;25.556;2023-11-21T09:17:47;98840.31;;;15.72;61.33
11912;BME280;6016;41.928;25.556;2023-11-21T09:20:14;98842.50;;;15.68;61.41
11912;BME280;6016;41.928;25.556;2023-11-21T09:22:41;98823.56;;;15.48;61.07
11912;BME280;6016;41.928;25.556;2023-11-21T09:25:10;98842.44;;;15.53;60.37
11912;BME280;6016;41.928;25.556;2023-11-21T09:27:38;98838.22;;;15.44;61.38
11912;BME280;6016;41.928;25.556;2023-11-21T09:30:06;98820.69;;;15.35;61.81
11912;BME280;6016;41.928;25.556;2023-11-21T09:32:35;98827.75;;;15.42;61.44
11912;BME280;6016;41.928;25.556;2023-11-21T09:35:04;98823.84;;;15.53;61.22
11912;BME280;6016;41.928;25.556;2023-11-21T09:37:33;98803.69;;;15.59;61.00
11912;BME280;6016;41.928;25.556;2023-11-21T09:40:01;98805.91;;;15.70;61.18
11912;BME280;6016;41.928;25.556;2023-11-21T09:42:32;98801.19;;;15.81;60.99
11912;BME280;6016;41.928;25.556;2023-11-21T09:45:08;98798.44;;;15.89;60.95
11912;BME280;6016;41.928;25.556;2023-11-21T09:47:38;98802.69;;;15.98;61.42
11912;BME280;6016;41.928;25.556;2023-11-21T09:50:09;98798.94;;;15.93;60.75
11912;BME280;6016;41.928;25.556;2023-11-21T09:52:42;98794.00;;;16.05;60.24
11912;BME280;6016;41.928;25.556;2023-11-21T09:55:13;98776.00;;;16.07;60.75
11912;BME280;6016;41.928;25.556;2023-11-21T09:57:44;98784.38;;;16.19;60.40
11912;BME280;6016;41.928;25.556;2023-11-21T10:00:14;98781.78;;;16.25;60.74
11912;BME280;6016;41.928;25.556;2023-11-21T10:02:43;98777.91;;;16.28;60.33
11912;BME280;6016;41.928;25.556;2023-11-21T10:05:13;98774.63;;;16.26;60.28
11912;BME280;6016;41.928;25.556;2023-11-21T10:07:42;98767.28;;;16.28;61.44
11912;BME280;6016;41.928;25.556;2023-11-21T10:10:10;98757.63;;;16.27;61.75
11912;BME280;6016;41.928;25.556;2023-11-21T10:12:38;98762.06;;;16.20;63.49
11912;BME280;6016;41.928;25.556;2023-11-21T10:15:08;98686.38;;;15.62;63.14
11912;BME280;6016;41.928;25.556;2023-11-21T10:17:38;98720.97;;;15.92;63.69
11912;BME280;6016;41.928;25.556;2023-11-21T10:20:11;98761.84;;;16.21;63.11
11912;BME280;6016;41.928;25.556;2023-11-21T10:22:41;98751.13;;;16.29;63.33
11912;BME280;6016;41.928;25.556;2023-11-21T10:25:09;98716.38;;;16.16;63.70
11912;BME280;6016;41.928;25.556;2023-11-21T10:27:36;98737.59;;;16.46;63.62
11912;BME280;6016;41.928;25.556;2023-11-21T10:30:05;98655.00;;;16.02;63.16
11912;BME280;6016;41.928;25.556;2023-11-21T10:32:33;98669.19;;;16.10;63.15
11912;BME280;6016;41.928;25.556;2023-11-21T10:35:00;98735.63;;;16.55;63.19
11912;BME280;6016;41.928;25.556;2023-11-21T10:37:32;98695.44;;;16.50;61.82
11912;BME280;6016;41.928;25.556;2023-11-21T10:40:00;98708.44;;;16.59;62.75
11912;BME280;6016;41.928;25.556;2023-11-21T10:42:27;98705.69;;;16.68;62.06
11912;BME280;6016;41.928;25.556;2023-11-21T10:44:55;98663.00;;;16.61;61.75
11912;BME280;6016;41.928;25.556;2023-11-21T10:47:22;98708.81;;;17.15;61.04
11912;BME280;6016;41.928;25.556;2023-11-21T10:49:49;98364.75;;;15.10;61.87
11912;BME280;6016;41.928;25.556;2023-11-21T10:52:19;98693.16;;;17.34;61.40
11912;BME280;6016;41.928;25.556;2023-11-21T10:54:46;98651.97;;;17.08;61.36
11912;BME280;6016;41.928;25.556;2023-11-21T10:57:18;98693.22;;;17.40;60.04
11912;BME280;6016;41.928;25.556;2023-11-21T10:59:47;98686.59;;;17.36;61.20
11912;BME280;6016;41.928;25.556;2023-11-21T11:02:21;98690.59;;;17.47;61.50
11912;BME280;6016;41.928;25.556;2023-11-21T11:04:52;98595.97;;;17.01;61.33
11912;BME280;6016;41.928;25.556;2023-11-21T11:07:21;98652.34;;;17.33;60.65
11912;BME280;6016;41.928;25.556;2023-11-21T11:09:48;98659.28;;;17.63;60.27
11912;BME280;6016;41.928;25.556;2023-11-21T11:12:17;98660.47;;;17.53;58.15
11912;BME280;6016;41.928;25.556;2023-11-21T11:14:44;98653.25;;;17.47;57.38
11912;BME280;6016;41.928;25.556;2023-11-21T11:17:12;98667.22;;;17.49;57.64
11912;BME280;6016;41.928;25.556;2023-11-21T11:19:40;98677.69;;;17.51;57.77
11912;BME280;6016;41.928;25.556;2023-11-21T11:22:19;98671.63;;;17.64;54.32
11912;BME280;6016;41.928;25.556;2023-11-21T11:25:06;98672.22;;;17.66;54.53
11912;BME280;6016;41.928;25.556;2023-11-21T11:27:51;98674.13;;;17.37;54.59
11912;BME280;6016;41.928;25.556;2023-11-21T11:30:29;98587.34;;;16.77;53.87
11912;BME280;6016;41.928;25.556;2023-11-21T11:33:10;98609.72;;;16.83;52.85
11912;BME280;6016;41.928;25.556;2023-11-21T11:35:46;98661.53;;;17.30;53.68
11912;BME280;6016;41.928;25.556;2023-11-21T11:38:17;98647.63;;;17.35;53.73
11912;BME280;6016;41.928;25.556;2023-11-21T11:40:45;98659.41;;;17.48;53.61
11912;BME280;6016;41.928;25.556;2023-11-21T11:43:24;98668.53;;;17.32;55.80
11912;BME280;6016;41.928;25.556;2023-11-21T11:45:51;98649.31;;;17.08;56.70
11912;BME280;6016;41.928;25.556;2023-11-21T11:48:21;98654.16;;;17.26;57.11
11912;BME280;6016;41.928;25.556;2023-11-21T11:51:01;98651.44;;;17.19;58.00
11912;BME280;6016;41.928;25.556;2023-11-21T11:53:35;98645.09;;;17.20;57.62
11912;BME280;6016;41.928;25.556;2023-11-21T11:56:25;98636.75;;;17.30;56.90
11912;BME280;6016;41.928;25.556;2023-11-21T11:58:55;98645.72;;;17.22;57.57
11912;BME280;6016;41.928;25.556;2023-11-21T12:01:24;98633.72;;;17.11;59.32
11912;BME280;6016;41.928;25.556;2023-11-21T12:04:25;98638.00;;;17.06;60.42
11912;BME280;6016;41.928;25.556;2023-11-21T12:07:01;98636.47;;;16.96;58.64
11912;BME280;6016;41.928;25.556;2023-11-21T12:09:30;98630.88;;;16.91;58.46
11912;BME280;6016;41.928;25.556;2023-11-21T12:11:58;98624.25;;;16.80;59.66
11912;BME280;6016;41.928;25.556;2023-11-21T12:14:26;98624.13;;;16.67;62.04
11912;BME280;6016;41.928;25.556;2023-11-21T12:16:54;98607.47;;;16.36;62.85
11912;BME280;6016;41.928;25.556;2023-11-21T12:19:21;98571.28;;;16.42;62.54
11912;BME280;6016;41.928;25.556;2023-11-21T12:21:49;98606.69;;;16.64;63.22
11912;BME280;6016;41.928;25.556;2023-11-21T12:24:16;98596.38;;;16.54;63.67
11912;BME280;6016;41.928;25.556;2023-11-21T12:26:43;98598.13;;;16.47;63.10
11912;BME280;6016;41.928;25.556;2023-11-21T12:29:11;98605.09;;;16.70;63.33
11912;BME280;6016;41.928;25.556;2023-11-21T12:31:39;98553.16;;;16.52;63.63
11912;BME280;6016;41.928;25.556;2023-11-21T12:34:07;98570.25;;;16.65;63.80
11912;BME280;6016;41.928;25.556;2023-11-21T12:36:37;98549.47;;;16.53;64.17
11912;BME280;6016;41.928;25.556;2023-11-21T12:39:04;98559.34;;;16.59;65.20
11912;BME280;6016;41.928;25.556;2023-11-21T12:41:31;98564.25;;;16.56;65.53
11912;BME280;6016;41.928;25.556;2023-11-21T12:43:58;98562.56;;;16.55;65.50
11912;BME280;6016;41.928;25.556;2023-11-21T12:46:25;98542.97;;;16.34;64.82
11912;BME280;6016;41.928;25.556;2023-11-21T12:48:57;98541.72;;;16.37;65.97
11912;BME280;6016;41.928;25.556;2023-11-21T12:51:24;98563.59;;;16.54;65.73
11912;BME280;6016;41.928;25.556;2023-11-21T12:53:52;98534.00;;;16.20;65.99
11912;BME280;6016;41.928;25.556;2023-11-21T12:56:21;98518.63;;;16.15;66.24
11912;BME280;6016;41.928;25.556;2023-11-21T12:58:50;98567.72;;;16.35;66.79
11912;BME280;6016;41.928;25.556;2023-11-21T13:01:20;98242.81;;;14.20;67.26
11912;BME280;6016;41.928;25.556;2023-11-21T13:03:48;98581.59;;;16.30;66.85
11912;BME280;6016;41.928;25.556;2023-11-21T13:06:19;98576.28;;;16.30;66.62
11912;BME280;6016;41.928;25.556;2023-11-21T13:08:50;98576.47;;;16.28;67.02
11912;BME280;6016;41.928;25.556;2023-11-21T13:11:17;98545.31;;;16.00;66.72